sensor_id;sensor_type;location;lat;lon;timestamp;P1;durP1;ratioP1;P2;durP2;ratioP2
22219;SDS011;11279;48.364;10.904;2024-02-28T00:00:49;36.60;;;22.27;;
22219;SDS011;11279;48.364;10.904;2024-02-28T00:01:49;37.47;;;22.33;;
22219;SDS011;11279;48.364;10.904;2024-02-28T00:02:50;34.45;;;21.38;;
22219;SDS011;11279;48.364;10.904;2024-02-28T00:03:51;35.70;;;21.07;;
22219;SDS011;11279;48.364;10.904;2024-02-28T00:04:51;33.60;;;21.07;;
22219;SDS011;11279;48.364;10.904;2024-02-28T00:05:51;37.37;;;22.53;;
22219;SDS011;11279;48.364;10.904;2024-02-28T00:06:52;36.30;;;23.17;;
22219;SDS011;11279;48.364;10.904;2024-02-28T00:07:52;39.77;;;21.60;;
22219;SDS011;11279;48.364;10.904;2024-02-28T00:08:53;36.00;;;22.47;;
22219;SDS011;11279;48.364;10.904;2024-02-28T00:09:54;36.20;;;22.50;;
22219;SDS011;11279;48.364;10.904;2024-02-28T00:10:57;36.75;;;22.10;;
22219;SDS011;11279;48.364;10.904;2024-02-28T00:11:58;35.90;;;22.37;;
22219;SDS011;11279;48.364;10.904;2024-02-28T00:12:59;36.10;;;21.87;;
22219;SDS011;11279;48.364;10.904;2024-02-28T00:13:59;33.47;;;20.88;;
22219;SDS011;11279;48.364;10.904;2024-02-28T00:15:00;38.03;;;23.77;;
22219;SDS011;11279;48.364;10.904;2024-02-28T00:16:01;36.80;;;22.30;;
22219;SDS011;11279;48.364;10.904;2024-02-28T00:17:01;35.20;;;21.57;;
22219;SDS011;11279;48.364;10.904;2024-02-28T00:18:01;41.10;;;22.17;;
22219;SDS011;11279;48.364;10.904;2024-02-28T00:19:03;39.40;;;22.90;;
22219;SDS011;11279;48.364;10.904;2024-02-28T00:20:04;35.30;;;22.63;;
22219;SDS011;11279;48.364;10.904;2024-02-28T00:21:05;37.77;;;22.53;;
22219;SDS011;11279;48.364;10.904;2024-02-28T00:22:05;37.60;;;23.97;;
22219;SDS011;11279;48.364;10.904;2024-02-28T00:23:05;38.83;;;23.47;;
22219;SDS011;11279;48.364;10.904;2024-02-28T00:24:06;36.97;;;22.53;;
22219;SDS011;11279;48.364;10.904;2024-02-28T00:25:07;36.72;;;21.73;;
22219;SDS011;11279;48.364;10.904;2024-02-28T00:26:11;38.70;;;23.08;;
22219;SDS011;11279;48.364;10.904;2024-02-28T00:27:12;40.03;;;24.25;;
22219;SDS011;11279;48.364;10.904;2024-02-28T00:28:12;40.73;;;22.20;;
22219;SDS011;11279;48.364;10.904;2024-02-28T00:29:13;38.10;;;23.07;;
22219;SDS011;11279;48.364;10.904;2024-02-28T00:30:13;39.13;;;24.13;;
22219;SDS011;11279;48.364;10.904;2024-02-28T00:31:14;38.27;;;23.03;;
22219;SDS011;11279;48.364;10.904;2024-02-28T00:32:14;37.63;;;23.03;;
22219;SDS011;11279;48.364;10.904;2024-02-28T00:33:14;41.90;;;23.83;;
22219;SDS011;11279;48.364;10.904;2024-02-28T00:34:15;40.60;;;23.73;;
22219;SDS011;11279;48.364;10.904;2024-02-28T00:35:15;38.77;;;23.07;;
22219;SDS011;11279;48.364;10.904;2024-02-28T00:36:16;40.07;;;24.00;;
22219;SDS011;11279;48.364;10.904;2024-02-28T00:37:16;37.23;;;23.27;;
22219;SDS011;11279;48.364;10.904;2024-02-28T00:38:17;39.37;;;23.50;;
22219;SDS011;11279;48.364;10.904;2024-02-28T00:39:17;34.80;;;22.80;;
22219;SDS011;11279;48.364;10.904;2024-02-28T00:40:18;41.67;;;24.53;;
22219;SDS011;11279;48.364;10.904;2024-02-28T00:41:18;44.20;;;24.27;;
22219;SDS011;11279;48.364;10.904;2024-02-28T00:42:19;35.77;;;22.10;;
22219;SDS011;11279;48.364;10.904;2024-02-28T00:43:19;37.30;;;23.50;;
22219;SDS011;11279;48.364;10.904;2024-02-28T00:44:19;36.77;;;23.00;;
22219;SDS011;11279;48.364;10.904;2024-02-28T00:45:23;38.75;;;22.98;;
22219;SDS011;11279;48.364;10.904;2024-02-28T00:46:23;40.00;;;21.73;;
22219;SDS011;11279;48.364;10.904;2024-02-28T00:47:24;40.17;;;23.30;;
22219;SDS011;11279;48.364;10.904;2024-02-28T00:48:25;39.88;;;23.30;;
22219;SDS011;11279;48.364;10.904;2024-02-28T00:49:26;41.65;;;23.98;;
22219;SDS011;11279;48.364;10.904;2024-02-28T00:50:27;40.50;;;23.33;;
22219;SDS011;11279;48.364;10.904;2024-02-28T00:51:27;40.30;;;23.93;;
22219;SDS011;11279;48.364;10.904;2024-02-28T00:52:28;41.63;;;22.83;;
22219;SDS011;11279;48.364;10.904;2024-02-28T00:53:29;41.50;;;24.43;;
22219;SDS011;11279;48.364;10.904;2024-02-28T00:54:29;40.63;;;23.93;;
22219;SDS011;11279;48.364;10.904;2024-02-28T00:55:29;39.23;;;23.77;;
22219;SDS011;11279;48.364;10.904;2024-02-28T00:56:30;38.93;;;24.83;;
22219;SDS011;11279;48.364;10.904;2024-02-28T00:57:30;39.67;;;23.43;;
22219;SDS011;11279;48.364;10.904;2024-02-28T00:58:31;39.17;;;23.70;;
22219;SDS011;11279;48.364;10.904;2024-02-28T00:59:31;41.00;;;24.27;;
22219;SDS011;11279;48.364;10.904;2024-02-28T01:00:32;44.20;;;25.57;;
22219;SDS011;11279;48.364;10.904;2024-02-28T01:01:32;40.80;;;24.27;;
22219;SDS011;11279;48.364;10.904;2024-02-28T01:02:33;42.40;;;24.30;;
22219;SDS011;11279;48.364;10.904;2024-02-28T01:03:33;39.17;;;23.33;;
22219;SDS011;11279;48.364;10.904;2024-02-28T01:04:34;39.57;;;24.23;;
22219;SDS011;11279;48.364;10.904;2024-02-28T01:05:34;41.20;;;24.03;;
22219;SDS011;11279;48.364;10.904;2024-02-28T01:06:35;44.60;;;23.53;;
22219;SDS011;11279;48.364;10.904;2024-02-28T01:07:35;41.47;;;23.77;;
22219;SDS011;11279;48.364;10.904;2024-02-28T01:08:36;38.33;;;23.40;;
22219;SDS011;11279;48.364;10.904;2024-02-28T01:09:36;39.70;;;23.83;;
22219;SDS011;11279;48.364;10.904;2024-02-28T01:10:36;41.47;;;24.67;;
22219;SDS011;11279;48.364;10.904;2024-02-28T01:11:38;38.38;;;23.13;;
22219;SDS011;11279;48.364;10.904;2024-02-28T01:12:38;41.57;;;24.83;;
22219;SDS011;11279;48.364;10.904;2024-02-28T01:13:39;44.90;;;25.53;;
22219;SDS011;11279;48.364;10.904;2024-02-28T01:14:39;40.07;;;24.63;;
22219;SDS011;11279;48.364;10.904;2024-02-28T01:15:40;41.50;;;24.67;;
22219;SDS011;11279;48.364;10.904;2024-02-28T01:16:44;39.78;;;25.00;;
22219;SDS011;11279;48.364;10.904;2024-02-28T01:17:44;42.60;;;25.67;;
22219;SDS011;11279;48.364;10.904;2024-02-28T01:18:44;41.77;;;25.17;;
22219;SDS011;11279;48.364;10.904;2024-02-28T01:19:45;42.90;;;24.77;;
22219;SDS011;11279;48.364;10.904;2024-02-28T01:20:45;44.37;;;24.40;;
22219;SDS011;11279;48.364;10.904;2024-02-28T01:21:46;40.37;;;23.73;;
22219;SDS011;11279;48.364;10.904;2024-02-28T01:22:46;44.13;;;24.03;;
22219;SDS011;11279;48.364;10.904;2024-02-28T01:23:47;41.50;;;24.83;;
22219;SDS011;11279;48.364;10.904;2024-02-28T01:24:48;40.83;;;23.50;;
22219;SDS011;11279;48.364;10.904;2024-02-28T01:25:48;44.10;;;24.53;;
22219;SDS011;11279;48.364;10.904;2024-02-28T01:26:49;40.93;;;25.23;;
22219;SDS011;11279;48.364;10.904;2024-02-28T01:27:49;43.93;;;23.83;;
22219;SDS011;11279;48.364;10.904;2024-02-28T01:28:49;40.77;;;24.70;;
22219;SDS011;11279;48.364;10.904;2024-02-28T01:29:50;43.33;;;24.20;;
22219;SDS011;11279;48.364;10.904;2024-02-28T01:30:50;45.40;;;24.90;;
22219;SDS011;11279;48.364;10.904;2024-02-28T01:31:51;39.37;;;24.20;;
22219;SDS011;11279;48.364;10.904;2024-02-28T01:32:51;41.87;;;24.90;;
22219;SDS011;11279;48.364;10.904;2024-02-28T01:33:52;41.87;;;26.30;;
22219;SDS011;11279;48.364;10.904;2024-02-28T01:34:52;43.30;;;24.47;;
22219;SDS011;11279;48.364;10.904;2024-02-28T01:35:53;42.60;;;25.00;;
22219;SDS011;11279;48.364;10.904;2024-02-28T01:36:53;40.77;;;24.40;;
22219;SDS011;11279;48.364;10.904;2024-02-28T01:37:53;41.70;;;24.07;;
22219;SDS011;11279;48.364;10.904;2024-02-28T01:38:54;43.33;;;25.03;;
22219;SDS011;11279;48.364;10.904;2024-02-28T01:39:54;46.83;;;24.97;;
22219;SDS011;11279;48.364;10.904;2024-02-28T01:40:55;39.47;;;23.37;;
22219;SDS011;11279;48.364;10.904;2024-02-28T01:41:55;43.63;;;25.57;;
22219;SDS011;11279;48.364;10.904;2024-02-28T01:43:30;41.60;;;25.55;;
22219;SDS011;11279;48.364;10.904;2024-02-28T01:44:23;40.05;;;23.15;;
22219;SDS011;11279;48.364;10.904;2024-02-28T01:45:24;41.30;;;23.77;;
22219;SDS011;11279;48.364;10.904;2024-02-28T01:46:28;43.03;;;24.50;;
22219;SDS011;11279;48.364;10.904;2024-02-28T01:47:29;42.30;;;24.58;;
22219;SDS011;11279;48.364;10.904;2024-02-28T01:48:30;41.95;;;24.02;;
22219;SDS011;11279;48.364;10.904;2024-02-28T01:49:31;45.90;;;25.43;;
22219;SDS011;11279;48.364;10.904;2024-02-28T01:50:32;43.53;;;24.63;;
22219;SDS011;11279;48.364;10.904;2024-02-28T01:51:32;45.23;;;26.17;;
22219;SDS011;11279;48.364;10.904;2024-02-28T01:52:33;42.03;;;24.87;;
22219;SDS011;11279;48.364;10.904;2024-02-28T01:53:33;45.27;;;26.00;;
22219;SDS011;11279;48.364;10.904;2024-02-28T01:54:34;44.93;;;25.20;;
22219;SDS011;11279;48.364;10.904;2024-02-28T01:55:35;41.40;;;25.02;;
22219;SDS011;11279;48.364;10.904;2024-02-28T01:56:36;45.20;;;25.87;;
22219;SDS011;11279;48.364;10.904;2024-02-28T01:57:36;45.30;;;25.90;;
22219;SDS011;11279;48.364;10.904;2024-02-28T01:58:37;44.40;;;25.97;;
22219;SDS011;11279;48.364;10.904;2024-02-28T01:59:39;43.63;;;25.88;;
22219;SDS011;11279;48.364;10.904;2024-02-28T02:00:39;40.13;;;25.77;;
22219;SDS011;11279;48.364;10.904;2024-02-28T02:01:40;45.43;;;25.53;;
22219;SDS011;11279;48.364;10.904;2024-02-28T02:02:40;46.33;;;26.47;;
22219;SDS011;11279;48.364;10.904;2024-02-28T02:03:44;42.72;;;25.02;;
22219;SDS011;11279;48.364;10.904;2024-02-28T02:04:44;41.60;;;25.63;;
22219;SDS011;11279;48.364;10.904;2024-02-28T02:05:45;42.50;;;25.20;;
22219;SDS011;11279;48.364;10.904;2024-02-28T02:06:47;44.37;;;26.07;;
22219;SDS011;11279;48.364;10.904;2024-02-28T02:07:48;43.78;;;25.67;;
22219;SDS011;11279;48.364;10.904;2024-02-28T02:08:49;42.53;;;25.93;;
22219;SDS011;11279;48.364;10.904;2024-02-28T02:09:49;41.00;;;24.90;;
22219;SDS011;11279;48.364;10.904;2024-02-28T02:10:50;43.08;;;24.58;;
22219;SDS011;11279;48.364;10.904;2024-02-28T02:11:51;42.70;;;25.13;;
22219;SDS011;11279;48.364;10.904;2024-02-28T02:12:51;40.80;;;24.13;;
22219;SDS011;11279;48.364;10.904;2024-02-28T02:13:52;43.73;;;24.87;;
22219;SDS011;11279;48.364;10.904;2024-02-28T02:14:53;43.22;;;25.30;;
22219;SDS011;11279;48.364;10.904;2024-02-28T02:15:53;43.33;;;24.70;;
22219;SDS011;11279;48.364;10.904;2024-02-28T02:16:54;43.70;;;26.03;;
22219;SDS011;11279;48.364;10.904;2024-02-28T02:17:55;40.90;;;25.10;;
22219;SDS011;11279;48.364;10.904;2024-02-28T02:18:55;44.00;;;25.93;;
22219;SDS011;11279;48.364;10.904;2024-02-28T02:19:55;44.90;;;26.60;;
22219;SDS011;11279;48.364;10.904;2024-02-28T02:20:58;45.83;;;25.53;;
22219;SDS011;11279;48.364;10.904;2024-02-28T02:22:03;48.47;;;26.83;;
22219;SDS011;11279;48.364;10.904;2024-02-28T02:23:05;41.38;;;24.73;;
22219;SDS011;11279;48.364;10.904;2024-02-28T02:24:06;43.33;;;25.73;;
22219;SDS011;11279;48.364;10.904;2024-02-28T02:25:06;48.10;;;26.77;;
22219;SDS011;11279;48.364;10.904;2024-02-28T02:26:07;42.07;;;25.63;;
22219;SDS011;11279;48.364;10.904;2024-02-28T02:27:07;43.97;;;24.97;;
22219;SDS011;11279;48.364;10.904;2024-02-28T02:28:08;44.97;;;26.03;;
22219;SDS011;11279;48.364;10.904;2024-02-28T02:29:08;47.07;;;27.00;;
22219;SDS011;11279;48.364;10.904;2024-02-28T02:30:09;43.97;;;24.80;;
22219;SDS011;11279;48.364;10.904;2024-02-28T02:31:11;45.55;;;26.60;;
22219;SDS011;11279;48.364;10.904;2024-02-28T02:32:12;43.78;;;25.30;;
22219;SDS011;11279;48.364;10.904;2024-02-28T02:33:12;45.33;;;27.30;;
22219;SDS011;11279;48.364;10.904;2024-02-28T02:34:13;44.17;;;26.10;;
22219;SDS011;11279;48.364;10.904;2024-02-28T02:35:13;45.83;;;27.40;;
22219;SDS011;11279;48.364;10.904;2024-02-28T02:36:13;47.03;;;26.50;;
22219;SDS011;11279;48.364;10.904;2024-02-28T02:37:14;48.43;;;27.37;;
22219;SDS011;11279;48.364;10.904;2024-02-28T02:38:14;43.33;;;25.90;;
22219;SDS011;11279;48.364;10.904;2024-02-28T02:39:15;47.10;;;27.93;;
22219;SDS011;11279;48.364;10.904;2024-02-28T02:40:15;46.90;;;27.20;;
22219;SDS011;11279;48.364;10.904;2024-02-28T02:41:16;45.27;;;26.03;;
22219;SDS011;11279;48.364;10.904;2024-02-28T02:42:16;46.70;;;27.50;;
22219;SDS011;11279;48.364;10.904;2024-02-28T02:43:17;52.28;;;27.90;;
22219;SDS011;11279;48.364;10.904;2024-02-28T02:44:18;44.37;;;25.57;;
22219;SDS011;11279;48.364;10.904;2024-02-28T02:45:18;47.93;;;27.57;;
22219;SDS011;11279;48.364;10.904;2024-02-28T02:46:19;46.77;;;27.07;;
22219;SDS011;11279;48.364;10.904;2024-02-28T02:47:19;44.40;;;26.57;;
22219;SDS011;11279;48.364;10.904;2024-02-28T02:48:20;47.40;;;26.43;;
22219;SDS011;11279;48.364;10.904;2024-02-28T02:49:20;48.03;;;27.37;;
22219;SDS011;11279;48.364;10.904;2024-02-28T02:50:21;48.40;;;27.80;;
22219;SDS011;11279;48.364;10.904;2024-02-28T02:51:21;51.83;;;27.70;;
22219;SDS011;11279;48.364;10.904;2024-02-28T02:52:22;44.97;;;26.93;;
22219;SDS011;11279;48.364;10.904;2024-02-28T02:53:22;48.20;;;28.00;;
22219;SDS011;11279;48.364;10.904;2024-02-28T02:54:22;48.57;;;28.57;;
22219;SDS011;11279;48.364;10.904;2024-02-28T02:55:23;51.33;;;28.43;;
22219;SDS011;11279;48.364;10.904;2024-02-28T02:56:23;49.20;;;27.23;;
22219;SDS011;11279;48.364;10.904;2024-02-28T02:57:24;47.67;;;26.67;;
22219;SDS011;11279;48.364;10.904;2024-02-28T02:58:24;49.23;;;28.53;;
22219;SDS011;11279;48.364;10.904;2024-02-28T02:59:24;47.67;;;27.50;;
22219;SDS011;11279;48.364;10.904;2024-02-28T03:00:25;51.77;;;28.67;;
22219;SDS011;11279;48.364;10.904;2024-02-28T03:01:25;51.87;;;28.53;;
22219;SDS011;11279;48.364;10.904;2024-02-28T03:02:26;50.60;;;27.60;;
22219;SDS011;11279;48.364;10.904;2024-02-28T03:03:26;52.83;;;29.20;;
22219;SDS011;11279;48.364;10.904;2024-02-28T03:04:27;48.07;;;27.53;;
22219;SDS011;11279;48.364;10.904;2024-02-28T03:05:27;48.60;;;27.03;;
22219;SDS011;11279;48.364;10.904;2024-02-28T03:06:27;50.80;;;29.60;;
22219;SDS011;11279;48.364;10.904;2024-02-28T03:07:28;47.67;;;28.47;;
22219;SDS011;11279;48.364;10.904;2024-02-28T03:08:28;50.53;;;28.30;;
22219;SDS011;11279;48.364;10.904;2024-02-28T03:09:29;50.87;;;28.03;;
22219;SDS011;11279;48.364;10.904;2024-02-28T03:10:29;49.47;;;28.70;;
22219;SDS011;11279;48.364;10.904;2024-02-28T03:11:30;52.37;;;29.00;;
22219;SDS011;11279;48.364;10.904;2024-02-28T03:12:30;53.53;;;28.33;;
22219;SDS011;11279;48.364;10.904;2024-02-28T03:13:30;57.10;;;29.03;;
22219;SDS011;11279;48.364;10.904;2024-02-28T03:14:31;51.77;;;28.70;;
22219;SDS011;11279;48.364;10.904;2024-02-28T03:15:31;52.50;;;28.87;;
22219;SDS011;11279;48.364;10.904;2024-02-28T03:16:32;49.50;;;28.03;;
22219;SDS011;11279;48.364;10.904;2024-02-28T03:17:32;53.17;;;29.27;;
22219;SDS011;11279;48.364;10.904;2024-02-28T03:18:33;49.83;;;29.00;;
22219;SDS011;11279;48.364;10.904;2024-02-28T03:19:33;54.53;;;30.03;;
22219;SDS011;11279;48.364;10.904;2024-02-28T03:20:35;52.63;;;29.17;;
22219;SDS011;11279;48.364;10.904;2024-02-28T03:21:38;56.40;;;29.35;;
22219;SDS011;11279;48.364;10.904;2024-02-28T03:22:39;51.93;;;27.87;;
22219;SDS011;11279;48.364;10.904;2024-02-28T03:23:39;48.37;;;28.73;;
22219;SDS011;11279;48.364;10.904;2024-02-28T03:24:39;52.43;;;28.87;;
22219;SDS011;11279;48.364;10.904;2024-02-28T03:25:40;50.47;;;28.80;;
22219;SDS011;11279;48.364;10.904;2024-02-28T03:26:40;54.13;;;29.17;;
22219;SDS011;11279;48.364;10.904;2024-02-28T03:27:41;49.97;;;28.80;;
22219;SDS011;11279;48.364;10.904;2024-02-28T03:28:41;54.73;;;29.03;;
22219;SDS011;11279;48.364;10.904;2024-02-28T03:29:41;54.83;;;29.33;;
22219;SDS011;11279;48.364;10.904;2024-02-28T03:30:42;53.67;;;30.20;;
22219;SDS011;11279;48.364;10.904;2024-02-28T03:31:42;53.27;;;29.67;;
22219;SDS011;11279;48.364;10.904;2024-02-28T03:32:43;55.47;;;29.50;;
22219;SDS011;11279;48.364;10.904;2024-02-28T03:33:43;55.13;;;30.73;;
22219;SDS011;11279;48.364;10.904;2024-02-28T03:34:44;57.63;;;29.77;;
22219;SDS011;11279;48.364;10.904;2024-02-28T03:35:44;49.57;;;28.70;;
22219;SDS011;11279;48.364;10.904;2024-02-28T03:36:45;56.03;;;29.77;;
22219;SDS011;11279;48.364;10.904;2024-02-28T03:37:46;52.87;;;28.93;;
22219;SDS011;11279;48.364;10.904;2024-02-28T03:38:46;53.63;;;30.00;;
22219;SDS011;11279;48.364;10.904;2024-02-28T03:39:47;52.10;;;28.77;;
22219;SDS011;11279;48.364;10.904;2024-02-28T03:40:47;53.50;;;29.03;;
22219;SDS011;11279;48.364;10.904;2024-02-28T03:41:47;56.30;;;30.40;;
22219;SDS011;11279;48.364;10.904;2024-02-28T03:42:48;54.90;;;29.63;;
22219;SDS011;11279;48.364;10.904;2024-02-28T03:43:48;52.47;;;29.40;;
22219;SDS011;11279;48.364;10.904;2024-02-28T03:44:49;53.13;;;30.57;;
22219;SDS011;11279;48.364;10.904;2024-02-28T03:45:49;53.87;;;29.93;;
22219;SDS011;11279;48.364;10.904;2024-02-28T03:46:50;52.60;;;28.60;;
22219;SDS011;11279;48.364;10.904;2024-02-28T03:47:50;52.27;;;28.70;;
22219;SDS011;11279;48.364;10.904;2024-02-28T03:48:51;54.10;;;29.80;;
22219;SDS011;11279;48.364;10.904;2024-02-28T03:49:51;57.83;;;30.20;;
22219;SDS011;11279;48.364;10.904;2024-02-28T03:50:51;59.47;;;29.77;;
22219;SDS011;11279;48.364;10.904;2024-02-28T03:51:52;53.90;;;29.10;;
22219;SDS011;11279;48.364;10.904;2024-02-28T03:52:52;51.83;;;29.33;;
22219;SDS011;11279;48.364;10.904;2024-02-28T03:53:53;51.37;;;29.73;;
22219;SDS011;11279;48.364;10.904;2024-02-28T03:54:54;55.47;;;29.50;;
22219;SDS011;11279;48.364;10.904;2024-02-28T03:55:54;50.77;;;28.73;;
22219;SDS011;11279;48.364;10.904;2024-02-28T03:56:54;52.23;;;29.07;;
22219;SDS011;11279;48.364;10.904;2024-02-28T03:57:55;55.47;;;29.93;;
22219;SDS011;11279;48.364;10.904;2024-02-28T03:58:55;53.17;;;29.40;;
22219;SDS011;11279;48.364;10.904;2024-02-28T03:59:56;53.93;;;30.53;;
22219;SDS011;11279;48.364;10.904;2024-02-28T04:00:56;52.30;;;28.83;;
22219;SDS011;11279;48.364;10.904;2024-02-28T04:01:56;49.20;;;29.67;;
22219;SDS011;11279;48.364;10.904;2024-02-28T04:02:57;53.07;;;28.80;;
22219;SDS011;11279;48.364;10.904;2024-02-28T04:03:57;52.67;;;28.90;;
22219;SDS011;11279;48.364;10.904;2024-02-28T04:04:58;49.63;;;28.17;;
22219;SDS011;11279;48.364;10.904;2024-02-28T04:05:58;52.70;;;30.07;;
22219;SDS011;11279;48.364;10.904;2024-02-28T04:06:58;53.57;;;29.30;;
22219;SDS011;11279;48.364;10.904;2024-02-28T04:07:59;51.07;;;29.13;;
22219;SDS011;11279;48.364;10.904;2024-02-28T04:08:59;55.50;;;30.40;;
22219;SDS011;11279;48.364;10.904;2024-02-28T04:10:00;51.17;;;28.97;;
22219;SDS011;11279;48.364;10.904;2024-02-28T04:11:01;56.67;;;30.00;;
22219;SDS011;11279;48.364;10.904;2024-02-28T04:12:01;54.13;;;30.97;;
22219;SDS011;11279;48.364;10.904;2024-02-28T04:13:01;57.20;;;30.27;;
22219;SDS011;11279;48.364;10.904;2024-02-28T04:14:02;52.23;;;29.60;;
22219;SDS011;11279;48.364;10.904;2024-02-28T04:15:03;51.53;;;28.73;;
22219;SDS011;11279;48.364;10.904;2024-02-28T04:16:04;52.67;;;30.67;;
22219;SDS011;11279;48.364;10.904;2024-02-28T04:17:05;55.13;;;30.27;;
22219;SDS011;11279;48.364;10.904;2024-02-28T04:18:05;55.17;;;29.93;;
22219;SDS011;11279;48.364;10.904;2024-02-28T04:19:06;55.27;;;30.93;;
22219;SDS011;11279;48.364;10.904;2024-02-28T04:20:09;51.80;;;29.33;;
22219;SDS011;11279;48.364;10.904;2024-02-28T04:21:13;54.25;;;30.45;;
22219;SDS011;11279;48.364;10.904;2024-02-28T04:22:13;54.53;;;29.77;;
22219;SDS011;11279;48.364;10.904;2024-02-28T04:23:13;50.83;;;29.90;;
22219;SDS011;11279;48.364;10.904;2024-02-28T04:24:14;56.57;;;30.57;;
22219;SDS011;11279;48.364;10.904;2024-02-28T04:25:14;54.63;;;30.33;;
22219;SDS011;11279;48.364;10.904;2024-02-28T04:26:15;54.83;;;29.57;;
22219;SDS011;11279;48.364;10.904;2024-02-28T04:27:15;56.90;;;30.80;;
22219;SDS011;11279;48.364;10.904;2024-02-28T04:28:16;54.00;;;30.73;;
22219;SDS011;11279;48.364;10.904;2024-02-28T04:29:16;56.90;;;29.80;;
22219;SDS011;11279;48.364;10.904;2024-02-28T04:30:16;51.07;;;28.80;;
22219;SDS011;11279;48.364;10.904;2024-02-28T04:31:17;53.90;;;29.87;;
22219;SDS011;11279;48.364;10.904;2024-02-28T04:32:17;52.97;;;29.60;;
22219;SDS011;11279;48.364;10.904;2024-02-28T04:33:18;60.33;;;31.57;;
22219;SDS011;11279;48.364;10.904;2024-02-28T04:34:18;53.83;;;29.97;;
22219;SDS011;11279;48.364;10.904;2024-02-28T04:35:18;58.27;;;31.13;;
22219;SDS011;11279;48.364;10.904;2024-02-28T04:36:19;55.70;;;29.50;;
22219;SDS011;11279;48.364;10.904;2024-02-28T04:37:19;56.40;;;30.63;;
22219;SDS011;11279;48.364;10.904;2024-02-28T04:38:20;55.27;;;30.33;;
22219;SDS011;11279;48.364;10.904;2024-02-28T04:39:20;53.27;;;30.50;;
22219;SDS011;11279;48.364;10.904;2024-02-28T04:40:20;58.07;;;31.80;;
22219;SDS011;11279;48.364;10.904;2024-02-28T04:41:21;55.13;;;30.70;;
22219;SDS011;11279;48.364;10.904;2024-02-28T04:42:21;53.53;;;29.40;;
22219;SDS011;11279;48.364;10.904;2024-02-28T04:43:22;54.90;;;30.00;;
22219;SDS011;11279;48.364;10.904;2024-02-28T04:44:23;52.43;;;29.73;;
22219;SDS011;11279;48.364;10.904;2024-02-28T04:45:23;54.53;;;29.93;;
22219;SDS011;11279;48.364;10.904;2024-02-28T04:46:23;52.27;;;28.93;;
22219;SDS011;11279;48.364;10.904;2024-02-28T04:47:24;57.10;;;30.70;;
22219;SDS011;11279;48.364;10.904;2024-02-28T04:48:24;57.00;;;31.10;;
22219;SDS011;11279;48.364;10.904;2024-02-28T04:49:25;58.60;;;29.47;;
22219;SDS011;11279;48.364;10.904;2024-02-28T04:50:26;53.45;;;31.55;;
22219;SDS011;11279;48.364;10.904;2024-02-28T04:51:26;56.73;;;31.00;;
22219;SDS011;11279;48.364;10.904;2024-02-28T04:52:26;54.90;;;30.70;;
22219;SDS011;11279;48.364;10.904;2024-02-28T04:53:27;54.97;;;29.97;;
22219;SDS011;11279;48.364;10.904;2024-02-28T04:54:28;56.73;;;31.00;;
22219;SDS011;11279;48.364;10.904;2024-02-28T04:55:28;57.37;;;30.03;;
22219;SDS011;11279;48.364;10.904;2024-02-28T04:56:29;54.20;;;30.57;;
22219;SDS011;11279;48.364;10.904;2024-02-28T04:57:29;54.17;;;29.63;;
22219;SDS011;11279;48.364;10.904;2024-02-28T04:58:29;55.17;;;31.27;;
22219;SDS011;11279;48.364;10.904;2024-02-28T04:59:30;58.17;;;31.40;;
22219;SDS011;11279;48.364;10.904;2024-02-28T05:00:31;60.15;;;31.15;;
22219;SDS011;11279;48.364;10.904;2024-02-28T05:01:32;59.73;;;31.17;;
22219;SDS011;11279;48.364;10.904;2024-02-28T05:02:32;55.17;;;30.23;;
22219;SDS011;11279;48.364;10.904;2024-02-28T05:03:33;61.57;;;32.67;;
22219;SDS011;11279;48.364;10.904;2024-02-28T05:04:33;57.87;;;31.77;;
22219;SDS011;11279;48.364;10.904;2024-02-28T05:05:34;63.17;;;31.97;;
22219;SDS011;11279;48.364;10.904;2024-02-28T05:06:34;65.37;;;32.53;;
22219;SDS011;11279;48.364;10.904;2024-02-28T05:07:35;56.23;;;31.53;;
22219;SDS011;11279;48.364;10.904;2024-02-28T05:08:38;61.83;;;33.17;;
22219;SDS011;11279;48.364;10.904;2024-02-28T05:09:38;60.03;;;31.85;;
22219;SDS011;11279;48.364;10.904;2024-02-28T05:10:39;60.27;;;31.53;;
22219;SDS011;11279;48.364;10.904;2024-02-28T05:11:40;58.05;;;30.73;;
22219;SDS011;11279;48.364;10.904;2024-02-28T05:12:41;62.25;;;31.65;;
22219;SDS011;11279;48.364;10.904;2024-02-28T05:13:42;59.58;;;31.48;;
22219;SDS011;11279;48.364;10.904;2024-02-28T05:14:43;62.37;;;32.50;;
22219;SDS011;11279;48.364;10.904;2024-02-28T05:15:43;62.53;;;32.73;;
22219;SDS011;11279;48.364;10.904;2024-02-28T05:16:44;62.63;;;32.27;;
22219;SDS011;11279;48.364;10.904;2024-02-28T05:17:44;59.10;;;30.70;;
22219;SDS011;11279;48.364;10.904;2024-02-28T05:18:44;55.50;;;31.27;;
22219;SDS011;11279;48.364;10.904;2024-02-28T05:19:45;60.87;;;32.20;;
22219;SDS011;11279;48.364;10.904;2024-02-28T05:20:46;59.83;;;32.10;;
22219;SDS011;11279;48.364;10.904;2024-02-28T05:21:46;64.50;;;32.83;;
22219;SDS011;11279;48.364;10.904;2024-02-28T05:22:48;69.07;;;34.35;;
22219;SDS011;11279;48.364;10.904;2024-02-28T05:23:48;65.10;;;33.87;;
22219;SDS011;11279;48.364;10.904;2024-02-28T05:24:49;65.10;;;33.17;;
22219;SDS011;11279;48.364;10.904;2024-02-28T05:25:49;61.00;;;33.33;;
22219;SDS011;11279;48.364;10.904;2024-02-28T05:26:50;66.13;;;33.63;;
22219;SDS011;11279;48.364;10.904;2024-02-28T05:27:50;65.87;;;33.10;;
22219;SDS011;11279;48.364;10.904;2024-02-28T05:28:51;61.20;;;33.17;;
22219;SDS011;11279;48.364;10.904;2024-02-28T05:29:51;63.50;;;33.37;;
22219;SDS011;11279;48.364;10.904;2024-02-28T05:30:51;63.13;;;33.80;;
22219;SDS011;11279;48.364;10.904;2024-02-28T05:31:52;67.37;;;33.10;;
22219;SDS011;11279;48.364;10.904;2024-02-28T05:32:52;62.57;;;33.13;;
22219;SDS011;11279;48.364;10.904;2024-02-28T05:33:53;67.77;;;33.77;;
22219;SDS011;11279;48.364;10.904;2024-02-28T05:34:54;73.90;;;34.53;;
22219;SDS011;11279;48.364;10.904;2024-02-28T05:35:55;65.30;;;33.27;;
22219;SDS011;11279;48.364;10.904;2024-02-28T05:36:55;66.20;;;32.83;;
22219;SDS011;11279;48.364;10.904;2024-02-28T05:37:56;66.67;;;33.57;;
22219;SDS011;11279;48.364;10.904;2024-02-28T05:38:57;74.57;;;36.10;;
22219;SDS011;11279;48.364;10.904;2024-02-28T05:39:58;67.47;;;33.83;;
22219;SDS011;11279;48.364;10.904;2024-02-28T05:40:58;69.93;;;34.77;;
22219;SDS011;11279;48.364;10.904;2024-02-28T05:41:59;70.07;;;34.43;;
22219;SDS011;11279;48.364;10.904;2024-02-28T05:42:59;70.47;;;35.40;;
22219;SDS011;11279;48.364;10.904;2024-02-28T05:44:02;67.65;;;34.88;;
22219;SDS011;11279;48.364;10.904;2024-02-28T05:45:02;68.80;;;34.83;;
22219;SDS011;11279;48.364;10.904;2024-02-28T05:46:03;71.93;;;34.97;;
22219;SDS011;11279;48.364;10.904;2024-02-28T05:47:03;68.43;;;33.80;;
22219;SDS011;11279;48.364;10.904;2024-02-28T05:48:04;68.87;;;33.77;;
22219;SDS011;11279;48.364;10.904;2024-02-28T05:49:05;67.17;;;34.27;;
22219;SDS011;11279;48.364;10.904;2024-02-28T05:50:05;71.97;;;35.23;;